< < Back
Terminal Aerodrome Forecast


Current Version              Previous Versions:   1  2  3  4  5  6  7  8  9  

Terminal Aerodrome Forecast

198
FTUS42 KFFC 240540
TAFPDK
TAF
KPDK 240540Z 2406/2506 07002KT P6SM SKC
     FM241600 03007KT P6SM SCT050
     FM250000 10005KT P6SM FEW070
     FM250500 13003KT P6SM SKC=



Latest METAR

527
SAUS70 KWBC 242200 RRF
MTRPDK
METAR KPDK 242153Z 00000KT 10SM CLR 33/16 A3003 RMK AO2 SLP150
T03280161


USA.gov is the U.S. government's official web portal to all federal, state and local government web resources and services.